sensor_id;sensor_type;location;lat;lon;timestamp;temperature;humidity
8099;DHT22;4092;47.876;9.372;2023-03-11T00:01:16;1.40;99.90
8099;DHT22;4092;47.876;9.372;2023-03-11T00:03:44;1.40;99.90
8099;DHT22;4092;47.876;9.372;2023-03-11T00:06:11;1.40;99.90
8099;DHT22;4092;47.876;9.372;2023-03-11T00:08:38;1.50;99.90
8099;DHT22;4092;47.876;9.372;2023-03-11T00:11:05;1.40;99.90
8099;DHT22;4092;47.876;9.372;2023-03-11T00:13:32;1.40;99.90
8099;DHT22;4092;47.876;9.372;2023-03-11T00:16:01;1.40;99.90
8099;DHT22;4092;47.876;9.372;2023-03-11T00:18:29;1.50;99.90
8099;DHT22;4092;47.876;9.372;2023-03-11T00:20:58;1.40;99.90
8099;DHT22;4092;47.876;9.372;2023-03-11T00:23:26;1.50;99.90
8099;DHT22;4092;47.876;9.372;2023-03-11T00:25:53;1.50;99.90
8099;DHT22;4092;47.876;9.372;2023-03-11T00:28:20;1.40;99.90
8099;DHT22;4092;47.876;9.372;2023-03-11T00:30:50;1.30;99.90
8099;DHT22;4092;47.876;9.372;2023-03-11T00:33:17;1.30;99.90
8099;DHT22;4092;47.876;9.372;2023-03-11T00:35:44;1.30;99.90
8099;DHT22;4092;47.876;9.372;2023-03-11T00:38:14;1.30;99.90
8099;DHT22;4092;47.876;9.372;2023-03-11T00:40:42;1.30;99.90
8099;DHT22;4092;47.876;9.372;2023-03-11T00:43:09;1.30;99.90
8099;DHT22;4092;47.876;9.372;2023-03-11T00:45:36;1.20;99.90
8099;DHT22;4092;47.876;9.372;2023-03-11T00:48:04;1.20;99.90
8099;DHT22;4092;47.876;9.372;2023-03-11T00:50:33;1.20;99.90
8099;DHT22;4092;47.876;9.372;2023-03-11T00:53:01;1.20;99.90
8099;DHT22;4092;47.876;9.372;2023-03-11T00:55:32;1.20;99.90
8099;DHT22;4092;47.876;9.372;2023-03-11T00:58:00;1.30;99.90
8099;DHT22;4092;47.876;9.372;2023-03-11T01:00:28;1.20;99.90
8099;DHT22;4092;47.876;9.372;2023-03-11T01:02:56;1.30;99.90
8099;DHT22;4092;47.876;9.372;2023-03-11T01:05:25;1.30;99.90
8099;DHT22;4092;47.876;9.372;2023-03-11T01:07:53;1.30;99.90
8099;DHT22;4092;47.876;9.372;2023-03-11T01:10:20;1.30;99.90
8099;DHT22;4092;47.876;9.372;2023-03-11T01:12:48;1.30;99.90
8099;DHT22;4092;47.876;9.372;2023-03-11T01:15:17;1.30;99.90
8099;DHT22;4092;47.876;9.372;2023-03-11T01:17:45;1.20;99.90
8099;DHT22;4092;47.876;9.372;2023-03-11T01:20:12;1.30;99.90
8099;DHT22;4092;47.876;9.372;2023-03-11T01:22:40;1.30;99.90
8099;DHT22;4092;47.876;9.372;2023-03-11T01:25:07;1.30;99.90
8099;DHT22;4092;47.876;9.372;2023-03-11T01:27:36;1.30;99.90
8099;DHT22;4092;47.876;9.372;2023-03-11T01:30:05;1.30;99.90
8099;DHT22;4092;47.876;9.372;2023-03-11T01:32:32;1.40;99.90
8099;DHT22;4092;47.876;9.372;2023-03-11T01:34:59;1.30;99.90
8099;DHT22;4092;47.876;9.372;2023-03-11T01:37:26;1.30;99.90
8099;DHT22;4092;47.876;9.372;2023-03-11T01:39:53;1.30;99.90
8099;DHT22;4092;47.876;9.372;2023-03-11T01:42:20;1.30;99.90
8099;DHT22;4092;47.876;9.372;2023-03-11T01:44:47;1.30;99.90
8099;DHT22;4092;47.876;9.372;2023-03-11T01:47:35;1.30;99.90
8099;DHT22;4092;47.876;9.372;2023-03-11T01:50:05;1.40;99.90
8099;DHT22;4092;47.876;9.372;2023-03-11T01:52:33;1.30;99.90
8099;DHT22;4092;47.876;9.372;2023-03-11T01:55:00;1.30;99.90
8099;DHT22;4092;47.876;9.372;2023-03-11T01:57:27;1.30;99.90
8099;DHT22;4092;47.876;9.372;2023-03-11T01:59:57;1.30;99.90
8099;DHT22;4092;47.876;9.372;2023-03-11T02:02:29;1.30;99.90
8099;DHT22;4092;47.876;9.372;2023-03-11T02:04:59;1.30;99.90
8099;DHT22;4092;47.876;9.372;2023-03-11T02:07:27;1.30;99.90
8099;DHT22;4092;47.876;9.372;2023-03-11T02:09:54;1.30;99.90
8099;DHT22;4092;47.876;9.372;2023-03-11T02:12:21;1.30;99.90
8099;DHT22;4092;47.876;9.372;2023-03-11T02:14:51;1.20;99.90
8099;DHT22;4092;47.876;9.372;2023-03-11T02:17:19;1.20;99.90
8099;DHT22;4092;47.876;9.372;2023-03-11T02:20:00;1.20;99.90
8099;DHT22;4092;47.876;9.372;2023-03-11T02:22:31;1.10;99.90
8099;DHT22;4092;47.876;9.372;2023-03-11T02:25:03;1.10;99.90
8099;DHT22;4092;47.876;9.372;2023-03-11T02:27:34;1.20;99.90
8099;DHT22;4092;47.876;9.372;2023-03-11T02:30:04;1.10;99.90
8099;DHT22;4092;47.876;9.372;2023-03-11T02:32:31;1.10;99.90
8099;DHT22;4092;47.876;9.372;2023-03-11T02:34:58;1.00;99.90
8099;DHT22;4092;47.876;9.372;2023-03-11T02:37:25;1.00;99.90
8099;DHT22;4092;47.876;9.372;2023-03-11T02:40:27;1.00;99.90
8099;DHT22;4092;47.876;9.372;2023-03-11T02:43:00;1.00;99.90
8099;DHT22;4092;47.876;9.372;2023-03-11T02:45:29;1.00;99.90
8099;DHT22;4092;47.876;9.372;2023-03-11T02:47:57;0.90;99.90
8099;DHT22;4092;47.876;9.372;2023-03-11T02:50:25;1.00;99.90
8099;DHT22;4092;47.876;9.372;2023-03-11T02:52:54;0.90;99.90
8099;DHT22;4092;47.876;9.372;2023-03-11T02:55:21;0.90;99.90
8099;DHT22;4092;47.876;9.372;2023-03-11T02:57:49;1.00;99.90
8099;DHT22;4092;47.876;9.372;2023-03-11T03:00:18;0.90;99.90
8099;DHT22;4092;47.876;9.372;2023-03-11T03:02:46;0.90;99.90
8099;DHT22;4092;47.876;9.372;2023-03-11T03:05:16;1.00;99.90
8099;DHT22;4092;47.876;9.372;2023-03-11T03:07:45;1.00;99.90
8099;DHT22;4092;47.876;9.372;2023-03-11T03:10:13;1.00;99.90
8099;DHT22;4092;47.876;9.372;2023-03-11T03:12:40;1.10;99.90
8099;DHT22;4092;47.876;9.372;2023-03-11T03:15:08;1.00;99.90
8099;DHT22;4092;47.876;9.372;2023-03-11T03:17:37;1.10;99.90
8099;DHT22;4092;47.876;9.372;2023-03-11T03:20:05;1.00;99.90
8099;DHT22;4092;47.876;9.372;2023-03-11T03:22:36;1.00;99.90
8099;DHT22;4092;47.876;9.372;2023-03-11T03:25:03;1.00;99.90
8099;DHT22;4092;47.876;9.372;2023-03-11T03:27:31;1.10;99.90
8099;DHT22;4092;47.876;9.372;2023-03-11T03:29:59;1.00;99.90
8099;DHT22;4092;47.876;9.372;2023-03-11T03:32:26;1.00;99.90
8099;DHT22;4092;47.876;9.372;2023-03-11T03:34:54;1.10;99.90
8099;DHT22;4092;47.876;9.372;2023-03-11T03:37:24;1.00;99.90
8099;DHT22;4092;47.876;9.372;2023-03-11T03:39:51;1.00;99.90
8099;DHT22;4092;47.876;9.372;2023-03-11T03:42:18;0.90;99.90
8099;DHT22;4092;47.876;9.372;2023-03-11T03:44:45;0.90;99.90
8099;DHT22;4092;47.876;9.372;2023-03-11T03:47:12;0.80;99.90
8099;DHT22;4092;47.876;9.372;2023-03-11T03:49:39;0.90;99.90
8099;DHT22;4092;47.876;9.372;2023-03-11T03:52:08;0.90;99.90
8099;DHT22;4092;47.876;9.372;2023-03-11T03:54:35;0.90;99.90
8099;DHT22;4092;47.876;9.372;2023-03-11T03:57:03;0.90;99.90
8099;DHT22;4092;47.876;9.372;2023-03-11T03:59:30;0.90;99.90
8099;DHT22;4092;47.876;9.372;2023-03-11T04:01:57;0.90;99.90
8099;DHT22;4092;47.876;9.372;2023-03-11T04:04:25;0.90;99.90
8099;DHT22;4092;47.876;9.372;2023-03-11T04:07:02;0.90;99.90
8099;DHT22;4092;47.876;9.372;2023-03-11T04:09:31;0.70;99.90
8099;DHT22;4092;47.876;9.372;2023-03-11T04:11:58;0.70;99.90
8099;DHT22;4092;47.876;9.372;2023-03-11T04:14:25;0.70;99.90
8099;DHT22;4092;47.876;9.372;2023-03-11T04:16:52;0.70;99.90
8099;DHT22;4092;47.876;9.372;2023-03-11T04:19:19;0.70;99.90
8099;DHT22;4092;47.876;9.372;2023-03-11T04:21:46;0.70;99.90
8099;DHT22;4092;47.876;9.372;2023-03-11T04:24:15;0.70;99.90
8099;DHT22;4092;47.876;9.372;2023-03-11T04:26:43;0.70;99.90
8099;DHT22;4092;47.876;9.372;2023-03-11T04:29:10;0.70;99.90
8099;DHT22;4092;47.876;9.372;2023-03-11T04:31:37;0.70;99.90
8099;DHT22;4092;47.876;9.372;2023-03-11T04:34:04;0.70;99.90
8099;DHT22;4092;47.876;9.372;2023-03-11T04:36:31;0.70;99.90
8099;DHT22;4092;47.876;9.372;2023-03-11T04:38:58;0.70;99.90
8099;DHT22;4092;47.876;9.372;2023-03-11T04:41:25;0.70;99.90
8099;DHT22;4092;47.876;9.372;2023-03-11T04:43:53;0.70;99.90
8099;DHT22;4092;47.876;9.372;2023-03-11T04:46:20;0.70;99.90
8099;DHT22;4092;47.876;9.372;2023-03-11T04:48:48;0.60;99.90
8099;DHT22;4092;47.876;9.372;2023-03-11T04:51:15;0.60;99.90
8099;DHT22;4092;47.876;9.372;2023-03-11T04:53:42;0.60;99.90
8099;DHT22;4092;47.876;9.372;2023-03-11T04:56:09;0.60;99.90
8099;DHT22;4092;47.876;9.372;2023-03-11T04:58:36;0.60;99.90
8099;DHT22;4092;47.876;9.372;2023-03-11T05:01:04;0.50;99.90
8099;DHT22;4092;47.876;9.372;2023-03-11T05:03:31;0.50;99.90
8099;DHT22;4092;47.876;9.372;2023-03-11T05:05:58;0.50;99.90
8099;DHT22;4092;47.876;9.372;2023-03-11T05:08:25;0.50;99.90
8099;DHT22;4092;47.876;9.372;2023-03-11T05:10:52;0.50;99.90
8099;DHT22;4092;47.876;9.372;2023-03-11T05:13:20;0.50;99.90
8099;DHT22;4092;47.876;9.372;2023-03-11T05:15:47;0.40;99.90
8099;DHT22;4092;47.876;9.372;2023-03-11T05:18:15;0.40;99.90
8099;DHT22;4092;47.876;9.372;2023-03-11T05:20:42;0.50;99.90
8099;DHT22;4092;47.876;9.372;2023-03-11T05:23:09;0.50;99.90
8099;DHT22;4092;47.876;9.372;2023-03-11T05:25:36;0.50;99.90
8099;DHT22;4092;47.876;9.372;2023-03-11T05:28:04;0.50;99.90
8099;DHT22;4092;47.876;9.372;2023-03-11T05:30:31;0.50;99.90
8099;DHT22;4092;47.876;9.372;2023-03-11T05:32:58;0.40;99.90
8099;DHT22;4092;47.876;9.372;2023-03-11T05:35:26;0.30;99.90
8099;DHT22;4092;47.876;9.372;2023-03-11T05:37:53;0.10;99.90
8099;DHT22;4092;47.876;9.372;2023-03-11T05:40:21;0.10;99.90
8099;DHT22;4092;47.876;9.372;2023-03-11T05:42:48;0.10;99.90
8099;DHT22;4092;47.876;9.372;2023-03-11T05:45:15;0.10;99.90
8099;DHT22;4092;47.876;9.372;2023-03-11T05:47:42;0.20;99.90
8099;DHT22;4092;47.876;9.372;2023-03-11T05:50:10;0.10;99.90
8099;DHT22;4092;47.876;9.372;2023-03-11T05:52:38;0.10;99.90
8099;DHT22;4092;47.876;9.372;2023-03-11T05:55:06;0.10;99.90
8099;DHT22;4092;47.876;9.372;2023-03-11T05:57:34;0.20;99.90
8099;DHT22;4092;47.876;9.372;2023-03-11T06:00:02;0.10;99.90
8099;DHT22;4092;47.876;9.372;2023-03-11T06:02:31;0.10;99.90
8099;DHT22;4092;47.876;9.372;2023-03-11T06:04:58;0.00;99.90
8099;DHT22;4092;47.876;9.372;2023-03-11T06:07:25;0.00;99.90
8099;DHT22;4092;47.876;9.372;2023-03-11T06:09:54;0.00;99.90
8099;DHT22;4092;47.876;9.372;2023-03-11T06:12:21;0.00;99.90
8099;DHT22;4092;47.876;9.372;2023-03-11T06:14:48;0.10;99.90
8099;DHT22;4092;47.876;9.372;2023-03-11T06:17:15;0.20;99.90
8099;DHT22;4092;47.876;9.372;2023-03-11T06:19:42;0.10;99.90
8099;DHT22;4092;47.876;9.372;2023-03-11T06:22:09;0.10;99.90
8099;DHT22;4092;47.876;9.372;2023-03-11T06:24:36;0.10;99.90
8099;DHT22;4092;47.876;9.372;2023-03-11T06:27:04;0.10;99.90
8099;DHT22;4092;47.876;9.372;2023-03-11T06:29:31;0.00;99.90
8099;DHT22;4092;47.876;9.372;2023-03-11T06:31:58;0.10;99.90
8099;DHT22;4092;47.876;9.372;2023-03-11T06:34:25;0.20;99.90
8099;DHT22;4092;47.876;9.372;2023-03-11T06:36:52;0.20;99.90
8099;DHT22;4092;47.876;9.372;2023-03-11T06:39:19;0.20;99.90
8099;DHT22;4092;47.876;9.372;2023-03-11T06:41:46;0.10;99.90
8099;DHT22;4092;47.876;9.372;2023-03-11T06:44:14;0.10;99.90
8099;DHT22;4092;47.876;9.372;2023-03-11T06:46:41;0.10;99.90
8099;DHT22;4092;47.876;9.372;2023-03-11T06:49:09;0.10;99.90
8099;DHT22;4092;47.876;9.372;2023-03-11T06:51:36;0.00;99.90
8099;DHT22;4092;47.876;9.372;2023-03-11T06:54:03;0.00;99.90
8099;DHT22;4092;47.876;9.372;2023-03-11T06:56:30;0.10;99.90
8099;DHT22;4092;47.876;9.372;2023-03-11T06:58:57;0.10;99.90
8099;DHT22;4092;47.876;9.372;2023-03-11T07:01:25;0.30;99.90
8099;DHT22;4092;47.876;9.372;2023-03-11T07:03:53;0.30;99.90
8099;DHT22;4092;47.876;9.372;2023-03-11T07:06:21;0.40;99.90
8099;DHT22;4092;47.876;9.372;2023-03-11T07:08:50;0.40;99.90
8099;DHT22;4092;47.876;9.372;2023-03-11T07:11:19;0.40;99.90
8099;DHT22;4092;47.876;9.372;2023-03-11T07:13:47;0.50;99.90
8099;DHT22;4092;47.876;9.372;2023-03-11T07:16:15;0.50;99.90
8099;DHT22;4092;47.876;9.372;2023-03-11T07:18:45;0.50;99.90
8099;DHT22;4092;47.876;9.372;2023-03-11T07:21:15;0.60;99.90
8099;DHT22;4092;47.876;9.372;2023-03-11T07:23:42;0.60;99.90
8099;DHT22;4092;47.876;9.372;2023-03-11T07:26:10;0.60;99.90
8099;DHT22;4092;47.876;9.372;2023-03-11T07:28:38;0.70;99.90
8099;DHT22;4092;47.876;9.372;2023-03-11T07:31:11;0.70;99.90
8099;DHT22;4092;47.876;9.372;2023-03-11T07:33:38;0.70;99.90
8099;DHT22;4092;47.876;9.372;2023-03-11T07:36:09;0.70;99.90
8099;DHT22;4092;47.876;9.372;2023-03-11T07:38:37;0.70;99.90
8099;DHT22;4092;47.876;9.372;2023-03-11T07:41:05;0.60;99.90
8099;DHT22;4092;47.876;9.372;2023-03-11T07:43:35;0.60;99.90
8099;DHT22;4092;47.876;9.372;2023-03-11T07:46:04;0.60;99.90
8099;DHT22;4092;47.876;9.372;2023-03-11T07:48:31;0.50;99.90
8099;DHT22;4092;47.876;9.372;2023-03-11T07:51:03;0.60;99.90
8099;DHT22;4092;47.876;9.372;2023-03-11T07:53:32;0.60;99.90
8099;DHT22;4092;47.876;9.372;2023-03-11T07:55:59;0.70;99.90
8099;DHT22;4092;47.876;9.372;2023-03-11T07:58:27;0.70;99.90
8099;DHT22;4092;47.876;9.372;2023-03-11T08:00:54;0.70;99.90
8099;DHT22;4092;47.876;9.372;2023-03-11T08:03:22;0.70;99.90
8099;DHT22;4092;47.876;9.372;2023-03-11T08:05:49;0.70;99.90
8099;DHT22;4092;47.876;9.372;2023-03-11T08:08:16;0.70;99.90
8099;DHT22;4092;47.876;9.372;2023-03-11T08:10:45;0.70;99.90
8099;DHT22;4092;47.876;9.372;2023-03-11T08:13:12;0.70;99.90
8099;DHT22;4092;47.876;9.372;2023-03-11T08:15:40;0.70;99.90
8099;DHT22;4092;47.876;9.372;2023-03-11T08:18:07;0.70;99.90
8099;DHT22;4092;47.876;9.372;2023-03-11T08:20:36;0.80;99.90
8099;DHT22;4092;47.876;9.372;2023-03-11T08:23:03;0.70;99.90
8099;DHT22;4092;47.876;9.372;2023-03-11T08:25:30;0.80;99.90
8099;DHT22;4092;47.876;9.372;2023-03-11T08:27:59;0.90;99.90
8099;DHT22;4092;47.876;9.372;2023-03-11T08:30:26;0.90;99.90
8099;DHT22;4092;47.876;9.372;2023-03-11T08:32:53;0.90;99.90
8099;DHT22;4092;47.876;9.372;2023-03-11T08:35:20;1.00;99.90
8099;DHT22;4092;47.876;9.372;2023-03-11T08:37:47;1.00;99.90
8099;DHT22;4092;47.876;9.372;2023-03-11T08:40:14;0.90;99.90
8099;DHT22;4092;47.876;9.372;2023-03-11T08:42:41;1.00;99.90
8099;DHT22;4092;47.876;9.372;2023-03-11T08:45:12;1.10;99.90
8099;DHT22;4092;47.876;9.372;2023-03-11T08:47:39;1.10;99.90
8099;DHT22;4092;47.876;9.372;2023-03-11T08:50:11;1.20;99.90
8099;DHT22;4092;47.876;9.372;2023-03-11T08:52:38;1.30;99.90
8099;DHT22;4092;47.876;9.372;2023-03-11T08:55:06;1.30;99.90
8099;DHT22;4092;47.876;9.372;2023-03-11T08:57:36;1.40;99.90
8099;DHT22;4092;47.876;9.372;2023-03-11T09:00:04;1.50;99.90
8099;DHT22;4092;47.876;9.372;2023-03-11T09:02:34;1.60;99.90
8099;DHT22;4092;47.876;9.372;2023-03-11T09:05:01;1.70;99.90
8099;DHT22;4092;47.876;9.372;2023-03-11T09:07:28;1.80;99.90
8099;DHT22;4092;47.876;9.372;2023-03-11T09:09:55;1.70;99.90
8099;DHT22;4092;47.876;9.372;2023-03-11T09:12:22;1.80;99.90
8099;DHT22;4092;47.876;9.372;2023-03-11T09:14:49;1.90;99.90
8099;DHT22;4092;47.876;9.372;2023-03-11T09:17:16;2.00;99.90
8099;DHT22;4092;47.876;9.372;2023-03-11T09:19:45;2.00;99.90
8099;DHT22;4092;47.876;9.372;2023-03-11T09:22:12;2.00;99.90
8099;DHT22;4092;47.876;9.372;2023-03-11T09:24:39;2.00;99.90
8099;DHT22;4092;47.876;9.372;2023-03-11T09:27:06;2.00;99.90
8099;DHT22;4092;47.876;9.372;2023-03-11T09:29:33;2.00;99.90
8099;DHT22;4092;47.876;9.372;2023-03-11T09:32:00;2.00;99.90
8099;DHT22;4092;47.876;9.372;2023-03-11T09:34:27;2.00;99.90
8099;DHT22;4092;47.876;9.372;2023-03-11T09:36:55;2.10;99.90
8099;DHT22;4092;47.876;9.372;2023-03-11T09:39:22;2.20;99.90
8099;DHT22;4092;47.876;9.372;2023-03-11T09:41:53;2.30;99.90
8099;DHT22;4092;47.876;9.372;2023-03-11T09:44:24;2.50;99.90
8099;DHT22;4092;47.876;9.372;2023-03-11T09:47:22;2.50;99.90
8099;DHT22;4092;47.876;9.372;2023-03-11T09:50:08;2.80;99.90
8099;DHT22;4092;47.876;9.372;2023-03-11T09:52:44;2.90;99.90
8099;DHT22;4092;47.876;9.372;2023-03-11T09:55:34;3.00;99.90
8099;DHT22;4092;47.876;9.372;2023-03-11T09:58:18;3.10;99.90
8099;DHT22;4092;47.876;9.372;2023-03-11T10:00:54;3.10;99.90
8099;DHT22;4092;47.876;9.372;2023-03-11T10:03:28;3.30;99.90
8099;DHT22;4092;47.876;9.372;2023-03-11T10:06:03;3.30;99.90
8099;DHT22;4092;47.876;9.372;2023-03-11T10:08:39;3.30;99.90
8099;DHT22;4092;47.876;9.372;2023-03-11T10:11:26;3.30;99.90
8099;DHT22;4092;47.876;9.372;2023-03-11T10:14:04;3.30;99.90
8099;DHT22;4092;47.876;9.372;2023-03-11T10:16:38;3.40;99.90
8099;DHT22;4092;47.876;9.372;2023-03-11T10:19:17;3.50;99.90
8099;DHT22;4092;47.876;9.372;2023-03-11T10:21:54;3.70;99.90
8099;DHT22;4092;47.876;9.372;2023-03-11T10:24:48;3.80;99.90
8099;DHT22;4092;47.876;9.372;2023-03-11T10:27:18;4.00;99.90
8099;DHT22;4092;47.876;9.372;2023-03-11T10:29:52;4.20;99.90
8099;DHT22;4092;47.876;9.372;2023-03-11T10:32:25;4.10;99.90
8099;DHT22;4092;47.876;9.372;2023-03-11T10:34:57;4.00;99.90
8099;DHT22;4092;47.876;9.372;2023-03-11T10:37:27;4.00;99.90
8099;DHT22;4092;47.876;9.372;2023-03-11T10:40:04;4.00;99.90
8099;DHT22;4092;47.876;9.372;2023-03-11T10:42:35;4.00;99.90
8099;DHT22;4092;47.876;9.372;2023-03-11T10:45:04;4.00;99.90
8099;DHT22;4092;47.876;9.372;2023-03-11T10:47:36;4.20;99.90
8099;DHT22;4092;47.876;9.372;2023-03-11T10:50:03;4.40;99.90
8099;DHT22;4092;47.876;9.372;2023-03-11T10:52:30;4.50;99.90
8099;DHT22;4092;47.876;9.372;2023-03-11T10:55:01;4.40;99.90
8099;DHT22;4092;47.876;9.372;2023-03-11T10:57:32;4.40;99.90
8099;DHT22;4092;47.876;9.372;2023-03-11T11:00:02;4.40;99.90
8099;DHT22;4092;47.876;9.372;2023-03-11T11:02:38;4.50;99.90
8099;DHT22;4092;47.876;9.372;2023-03-11T11:05:26;4.60;99.90
8099;DHT22;4092;47.876;9.372;2023-03-11T11:08:03;4.70;99.90
8099;DHT22;4092;47.876;9.372;2023-03-11T11:10:34;4.60;99.90
8099;DHT22;4092;47.876;9.372;2023-03-11T11:13:09;4.40;99.90
8099;DHT22;4092;47.876;9.372;2023-03-11T11:15:54;4.50;99.90
8099;DHT22;4092;47.876;9.372;2023-03-11T11:18:25;4.50;99.90
8099;DHT22;4092;47.876;9.372;2023-03-11T11:20:56;4.50;99.90
8099;DHT22;4092;47.876;9.372;2023-03-11T11:23:27;4.70;99.90
8099;DHT22;4092;47.876;9.372;2023-03-11T11:26:03;5.00;99.90
8099;DHT22;4092;47.876;9.372;2023-03-11T11:28:31;5.20;99.90
8099;DHT22;4092;47.876;9.372;2023-03-11T11:31:00;5.20;99.90
8099;DHT22;4092;47.876;9.372;2023-03-11T11:33:29;5.40;99.90
8099;DHT22;4092;47.876;9.372;2023-03-11T11:36:00;5.50;99.90
8099;DHT22;4092;47.876;9.372;2023-03-11T11:38:29;5.50;99.90
8099;DHT22;4092;47.876;9.372;2023-03-11T11:40:58;5.80;99.90
8099;DHT22;4092;47.876;9.372;2023-03-11T11:43:40;6.00;99.90
8099;DHT22;4092;47.876;9.372;2023-03-11T11:46:17;6.30;99.90
8099;DHT22;4092;47.876;9.372;2023-03-11T11:48:51;6.40;99.90
8099;DHT22;4092;47.876;9.372;2023-03-11T11:51:22;6.60;99.90
8099;DHT22;4092;47.876;9.372;2023-03-11T11:53:55;6.40;99.90
8099;DHT22;4092;47.876;9.372;2023-03-11T11:56:25;6.50;99.90
8099;DHT22;4092;47.876;9.372;2023-03-11T11:58:53;6.30;99.90
8099;DHT22;4092;47.876;9.372;2023-03-11T12:01:29;6.00;99.90
8099;DHT22;4092;47.876;9.372;2023-03-11T12:04:26;5.90;99.90
8099;DHT22;4092;47.876;9.372;2023-03-11T12:07:13;5.90;99.90
8099;DHT22;4092;47.876;9.372;2023-03-11T12:09:49;5.90;99.90
8099;DHT22;4092;47.876;9.372;2023-03-11T12:12:21;6.10;99.90
8099;DHT22;4092;47.876;9.372;2023-03-11T12:14:56;6.20;99.90
8099;DHT22;4092;47.876;9.372;2023-03-11T12:17:26;6.50;99.90
8099;DHT22;4092;47.876;9.372;2023-03-11T12:19:58;6.80;99.90
8099;DHT22;4092;47.876;9.372;2023-03-11T12:22:49;6.90;99.90
8099;DHT22;4092;47.876;9.372;2023-03-11T12:25:29;6.80;99.90
8099;DHT22;4092;47.876;9.372;2023-03-11T12:28:00;6.60;99.90
8099;DHT22;4092;47.876;9.372;2023-03-11T12:30:37;6.80;99.90
8099;DHT22;4092;47.876;9.372;2023-03-11T12:33:13;7.10;99.90
8099;DHT22;4092;47.876;9.372;2023-03-11T12:35:48;7.10;99.90
8099;DHT22;4092;47.876;9.372;2023-03-11T12:38:17;7.00;99.90
8099;DHT22;4092;47.876;9.372;2023-03-11T12:40:58;7.10;99.90
8099;DHT22;4092;47.876;9.372;2023-03-11T12:46:11;7.90;99.90
8099;DHT22;4092;47.876;9.372;2023-03-11T12:48:42;8.20;99.90
8099;DHT22;4092;47.876;9.372;2023-03-11T12:51:37;7.80;99.90
8099;DHT22;4092;47.876;9.372;2023-03-11T12:54:26;7.40;99.90
8099;DHT22;4092;47.876;9.372;2023-03-11T12:56:55;7.80;99.90
8099;DHT22;4092;47.876;9.372;2023-03-11T12:59:59;8.00;99.90
8099;DHT22;4092;47.876;9.372;2023-03-11T13:02:54;8.10;99.90
8099;DHT22;4092;47.876;9.372;2023-03-11T13:05:25;8.30;99.90
8099;DHT22;4092;47.876;9.372;2023-03-11T13:07:58;8.80;99.90
8099;DHT22;4092;47.876;9.372;2023-03-11T13:10:38;9.00;99.90
8099;DHT22;4092;47.876;9.372;2023-03-11T13:13:31;8.30;99.90
8099;DHT22;4092;47.876;9.372;2023-03-11T13:16:37;7.70;99.90
8099;DHT22;4092;47.876;9.372;2023-03-11T13:19:36;7.40;99.90
8099;DHT22;4092;47.876;9.372;2023-03-11T13:22:43;7.50;99.90
8099;DHT22;4092;47.876;9.372;2023-03-11T13:25:34;7.10;99.90
8099;DHT22;4092;47.876;9.372;2023-03-11T13:28:29;7.00;99.90
8099;DHT22;4092;47.876;9.372;2023-03-11T13:31:13;6.90;99.90
8099;DHT22;4092;47.876;9.372;2023-03-11T13:33:48;7.00;99.90
8099;DHT22;4092;47.876;9.372;2023-03-11T13:36:55;7.10;99.90
8099;DHT22;4092;47.876;9.372;2023-03-11T13:39:55;7.20;99.90
8099;DHT22;4092;47.876;9.372;2023-03-11T13:42:29;7.50;99.90
8099;DHT22;4092;47.876;9.372;2023-03-11T13:44:57;7.40;99.90
8099;DHT22;4092;47.876;9.372;2023-03-11T13:47:25;7.80;99.90
8099;DHT22;4092;47.876;9.372;2023-03-11T13:49:58;8.20;99.90
8099;DHT22;4092;47.876;9.372;2023-03-11T13:52:31;8.60;99.90
8099;DHT22;4092;47.876;9.372;2023-03-11T13:55:02;8.80;99.90
8099;DHT22;4092;47.876;9.372;2023-03-11T13:57:32;8.60;99.50
8099;DHT22;4092;47.876;9.372;2023-03-11T14:00:13;8.60;98.60
8099;DHT22;4092;47.876;9.372;2023-03-11T14:02:46;8.40;99.10
8099;DHT22;4092;47.876;9.372;2023-03-11T14:05:18;8.50;98.70
8099;DHT22;4092;47.876;9.372;2023-03-11T14:07:48;8.70;99.90
8099;DHT22;4092;47.876;9.372;2023-03-11T14:10:26;8.90;99.90
8099;DHT22;4092;47.876;9.372;2023-03-11T14:13:05;8.90;98.70
8099;DHT22;4092;47.876;9.372;2023-03-11T14:15:39;8.70;98.10
8099;DHT22;4092;47.876;9.372;2023-03-11T14:18:31;8.40;97.80
8099;DHT22;4092;47.876;9.372;2023-03-11T14:20:59;8.40;97.90
8099;DHT22;4092;47.876;9.372;2023-03-11T14:23:29;8.10;98.50
8099;DHT22;4092;47.876;9.372;2023-03-11T14:26:04;7.90;97.70
8099;DHT22;4092;47.876;9.372;2023-03-11T14:28:35;7.20;97.90
8099;DHT22;4092;47.876;9.372;2023-03-11T14:31:03;7.10;99.90
8099;DHT22;4092;47.876;9.372;2023-03-11T14:33:31;6.80;99.70
8099;DHT22;4092;47.876;9.372;2023-03-11T14:35:59;6.90;99.90
8099;DHT22;4092;47.876;9.372;2023-03-11T14:38:30;6.70;97.80
8099;DHT22;4092;47.876;9.372;2023-03-11T14:40:58;6.50;96.80
8099;DHT22;4092;47.876;9.372;2023-03-11T14:43:26;6.60;98.00
8099;DHT22;4092;47.876;9.372;2023-03-11T14:45:55;6.70;99.00
8099;DHT22;4092;47.876;9.372;2023-03-11T14:48:25;6.70;98.30
8099;DHT22;4092;47.876;9.372;2023-03-11T14:50:55;6.70;98.00
8099;DHT22;4092;47.876;9.372;2023-03-11T14:53:25;6.70;97.90
8099;DHT22;4092;47.876;9.372;2023-03-11T14:55:57;6.70;98.50
8099;DHT22;4092;47.876;9.372;2023-03-11T14:58:29;6.70;97.80
8099;DHT22;4092;47.876;9.372;2023-03-11T15:01:01;6.90;99.90
8099;DHT22;4092;47.876;9.372;2023-03-11T15:03:31;7.70;98.30
8099;DHT22;4092;47.876;9.372;2023-03-11T15:06:02;8.10;98.80
8099;DHT22;4092;47.876;9.372;2023-03-11T15:08:33;8.50;98.00
8099;DHT22;4092;47.876;9.372;2023-03-11T15:11:16;8.60;95.90
8099;DHT22;4092;47.876;9.372;2023-03-11T15:13:45;8.50;96.80
8099;DHT22;4092;47.876;9.372;2023-03-11T15:16:28;8.10;96.80
8099;DHT22;4092;47.876;9.372;2023-03-11T15:18:58;7.60;97.90
8099;DHT22;4092;47.876;9.372;2023-03-11T15:21:26;7.60;99.00
8099;DHT22;4092;47.876;9.372;2023-03-11T15:23:59;7.50;98.20
8099;DHT22;4092;47.876;9.372;2023-03-11T15:26:29;7.50;97.50
8099;DHT22;4092;47.876;9.372;2023-03-11T15:28:58;7.10;98.70
8099;DHT22;4092;47.876;9.372;2023-03-11T15:31:35;6.50;99.60
8099;DHT22;4092;47.876;9.372;2023-03-11T15:34:20;6.20;99.90
8099;DHT22;4092;47.876;9.372;2023-03-11T15:37:04;6.20;99.90
8099;DHT22;4092;47.876;9.372;2023-03-11T15:39:44;6.00;99.90
8099;DHT22;4092;47.876;9.372;2023-03-11T15:42:20;5.90;99.90
8099;DHT22;4092;47.876;9.372;2023-03-11T15:47:46;5.80;99.90
8099;DHT22;4092;47.876;9.372;2023-03-11T15:50:19;5.70;99.90
8099;DHT22;4092;47.876;9.372;2023-03-11T15:52:47;5.60;99.90
8099;DHT22;4092;47.876;9.372;2023-03-11T15:55:19;5.30;99.90
8099;DHT22;4092;47.876;9.372;2023-03-11T15:58:02;5.10;99.90
8099;DHT22;4092;47.876;9.372;2023-03-11T16:00:31;5.10;99.90
8099;DHT22;4092;47.876;9.372;2023-03-11T16:02:58;4.90;99.90
8099;DHT22;4092;47.876;9.372;2023-03-11T16:05:26;4.70;99.90
8099;DHT22;4092;47.876;9.372;2023-03-11T16:07:54;4.70;99.90
8099;DHT22;4092;47.876;9.372;2023-03-11T16:10:22;4.70;99.90
8099;DHT22;4092;47.876;9.372;2023-03-11T16:12:50;4.70;99.90
8099;DHT22;4092;47.876;9.372;2023-03-11T16:15:25;4.70;99.90
8099;DHT22;4092;47.876;9.372;2023-03-11T16:17:54;4.60;99.90
8099;DHT22;4092;47.876;9.372;2023-03-11T16:20:22;4.60;99.90
8099;DHT22;4092;47.876;9.372;2023-03-11T16:22:54;4.50;99.90
8099;DHT22;4092;47.876;9.372;2023-03-11T16:25:25;4.30;99.90
8099;DHT22;4092;47.876;9.372;2023-03-11T16:27:54;4.20;99.90
8099;DHT22;4092;47.876;9.372;2023-03-11T16:30:23;4.00;99.90
8099;DHT22;4092;47.876;9.372;2023-03-11T16:32:51;4.00;99.90
8099;DHT22;4092;47.876;9.372;2023-03-11T16:35:18;3.90;99.90
8099;DHT22;4092;47.876;9.372;2023-03-11T16:37:45;3.90;99.90
8099;DHT22;4092;47.876;9.372;2023-03-11T16:40:15;3.80;99.90
8099;DHT22;4092;47.876;9.372;2023-03-11T16:42:42;3.70;99.90
8099;DHT22;4092;47.876;9.372;2023-03-11T16:45:11;3.60;99.90
8099;DHT22;4092;47.876;9.372;2023-03-11T16:47:39;3.60;99.90